Historique des mesures à Cassis (13260), France
Quotidien Résumé Fevrier 23, 2018 Unités:  Métrique    US   Métrique/US
« Précédent (Jour)
Suivant (Jour) »
Quotidien Hebdomadaire Mensuel Annuel Période au choix
  Maximum: Minimum: Moyenne:
Température: TemperatureC °C 4.3 °C 7.7 °C
Point de rosée: DewpointC °C -2.0 °C -0.2 °C
Humidité: Humidity % 49 % 55 %
Vitesse du vent: 0 km/h 0 km/h 4.3 km/h
Rafales: 0 km/h - -
Vent:- - SSW
Pression: PressurehPa hPa 999.5 hPa -
Précipitations: 0.0 mm    
Historical Graphs
 
 
Mesures pour : Fevrier 23, 2018
Heure Temperature Point de rosée Pression Vent Vitesse du vent Rafales Humidité Pluie (par heure) Conditions
TemperatureC °C DewpointC °C PressurehPa hPa Calm     Humidity % HourlyPrecipMM mm SoftwareType W/m2
00:12 5.9 °C 0.4 °C 1001.9 hPa WNW 5.1 km/h 5.6 km/h 68 % 0.0 mm open2300-1.11 W/m2
01:12 5.1 °C -0.6 °C 1001.2 hPa Calm   20.9 km/h 67 % 0.0 mm open2300-1.11 W/m2
02:12 4.5 °C -0.9 °C 1000.9 hPa NNE 4.2 km/h 6.9 km/h 68 % 0.0 mm open2300-1.11 W/m2
03:12 4.3 °C -1.3 °C 1000.6 hPa NW 6.4 km/h 9.3 km/h 67 % 0.0 mm open2300-1.11 W/m2
04:12 4.8 °C -1.2 °C 999.9 hPa Calm     65 % 0.0 mm open2300-1.11 W/m2
05:12 4.6 °C -1.9 °C 999.5 hPa NNE 2.9 km/h 4.2 km/h 63 % 0.0 mm open2300-1.11 W/m2
06:12 4.8 °C -1.9 °C 1000.2 hPa Calm   9.3 km/h 62 % 0.0 mm open2300-1.11 W/m2
07:12 5.0 °C -1.7 °C 999.9 hPa NNW 3.4 km/h 5.6 km/h 62 % 0.0 mm open2300-1.11 W/m2
08:12 5.4 °C -1.7 °C 1000.6 hPa Calm   5.6 km/h 60 % 0.0 mm open2300-1.11 W/m2
09:12 6.4 °C -1.3 °C 1000.6 hPa Calm     58 % 0.0 mm open2300-1.11 W/m2
10:12 7.8 °C -0.5 °C 1001.2 hPa Calm   10.3 km/h 56 % 0.0 mm open2300-1.11 W/m2
11:12 9.9 °C 0.3 °C 1001.2 hPa Calm   3.4 km/h 51 % 0.0 mm open2300-1.11 W/m2
12:12 11.6 °C 2.1 °C 1001.2 hPa SE 5.1 km/h 5.6 km/h 52 % 0.0 mm open2300-1.11 W/m2
13:12 11.9 °C 2.6 °C 1000.9 hPa Calm   4.2 km/h 53 % 0.0 mm open2300-1.11 W/m2
14:12 11.8 °C 2.8 °C 1000.6 hPa Calm   2.9 km/h 54 % 0.0 mm open2300-1.11 W/m2
15:12 12.2 °C 2.6 °C 1000.2 hPa ESE 8 km/h 8 km/h 52 % 0.0 mm open2300-1.11 W/m2
16:12 12.3 °C 2.4 °C 1000.2 hPa Calm   2.3 km/h 51 % 0.0 mm open2300-1.11 W/m2
17:12 11.1 °C 0.8 °C 1000.6 hPa WNW 15 km/h 26.2 km/h 49 % 0.0 mm open2300-1.11 W/m2
18:12 9.8 °C -0.1 °C 1000.9 hPa West 13.2 km/h 26.7 km/h 50 % 0.0 mm open2300-1.11 W/m2
19:12 9.4 °C -0.3 °C 1001.2 hPa NNW 3.4 km/h 21.6 km/h 51 % 0.0 mm open2300-1.11 W/m2
20:12 9.0 °C -0.4 °C 1001.2 hPa NNW 2.9 km/h 9.8 km/h 52 % 0.0 mm open2300-1.11 W/m2
21:12 8.6 °C -1.0 °C 1000.9 hPa WNW 37 km/h 37 km/h 51 % 0.0 mm open2300-1.11 W/m2
22:12 8.3 °C -1.8 °C 1001.2 hPa Calm   2.3 km/h 49 % 0.0 mm open2300-1.11 W/m2
23:12 7.5 °C -2.0 °C 1001.2 hPa North 2.3 km/h 16.3 km/h 51 % 0.0 mm open2300-1.11 W/m2
Observations météo à CASSIS
WU-History script by Weather Underground - 1 mb